Terminal Aerodrome Forecast
Issued by NWS

Home | Current Version | Previous Version | Text Only | Print | Product List | Glossary On
Versions: 1 2 3 4 5 6 7 8 9 10 11 12 13 14 15 16 17 18 19 20 21 22 23 24 25 26 27 28 29 30 31 32 33
000
FTUS41 KBUF 242100 AAA
TAFJHW
TAF AMD
KJHW 242133Z 2422/2518 36008KT P6SM SCT250
     FM250000 03005KT P6SM SCT150 BKN250
     FM250300 07005KT P6SM BKN120
     FM250600 12008KT P6SM BKN120
     FM251700 15014G20KT P6SM OVC080
      AMD LTD TO CLD VIS AND WIND=

USA.gov is the U.S. government's official web portal to all federal, state and local government web resources and services.